createdAt,value
2024-03-05T00:01:06.617Z,37.50
2024-03-05T00:04:08.352Z,38.97
2024-03-05T00:07:10.072Z,36.55
2024-03-05T00:10:12.047Z,33.30
2024-03-05T00:13:15.294Z,38.22
2024-03-05T00:16:17.085Z,44.60
2024-03-05T00:19:18.936Z,45.75
2024-03-05T00:22:20.924Z,55.17
2024-03-05T00:25:22.722Z,46.17
2024-03-05T00:28:25.931Z,48.33
2024-03-05T00:31:27.859Z,48.97
2024-03-05T00:34:29.777Z,47.17
2024-03-05T00:37:31.672Z,49.78
2024-03-05T00:40:33.468Z,50.80
2024-03-05T00:43:36.678Z,57.58
2024-03-05T00:46:38.612Z,49.00
2024-03-05T00:49:40.450Z,56.08
2024-03-05T00:52:42.331Z,58.70
2024-03-05T00:55:44.241Z,50.83
2024-03-05T00:58:47.517Z,48.42
2024-03-05T01:01:49.388Z,49.42
2024-03-05T01:04:51.524Z,50.70
2024-03-05T01:07:53.482Z,51.47
2024-03-05T01:10:55.597Z,55.75
2024-03-05T01:13:58.820Z,51.08
2024-03-05T01:17:00.653Z,45.65
2024-03-05T01:20:02.567Z,47.60
2024-03-05T01:23:04.737Z,53.60
2024-03-05T01:26:06.556Z,52.08
2024-03-05T01:29:10.049Z,47.60
2024-03-05T01:32:11.753Z,48.20
2024-03-05T01:35:13.561Z,48.75
2024-03-05T01:38:15.365Z,53.67
2024-03-05T01:41:17.075Z,52.53
2024-03-05T01:44:20.275Z,49.97
2024-03-05T01:47:21.994Z,48.70
2024-03-05T01:50:23.773Z,48.67
2024-03-05T01:53:26.374Z,44.70
2024-03-05T01:56:28.669Z,47.55
2024-03-05T01:59:31.896Z,44.58
2024-03-05T02:02:33.683Z,49.20
2024-03-05T02:05:35.408Z,44.10
2024-03-05T02:08:37.113Z,50.15
2024-03-05T02:11:49.503Z,47.40
2024-03-05T02:14:59.036Z,44.63
2024-03-05T02:18:00.798Z,42.78
2024-03-05T02:21:04.535Z,43.42
2024-03-05T02:24:06.618Z,44.38
2024-03-05T02:27:11.966Z,40.58
2024-03-05T02:30:16.475Z,41.97
2024-03-05T02:33:19.995Z,47.60
2024-03-05T02:36:23.159Z,49.85
2024-03-05T02:39:24.908Z,43.78
2024-03-05T02:42:26.612Z,45.60
2024-03-05T02:45:28.395Z,45.92
2024-03-05T02:48:30.155Z,48.40
2024-03-05T02:51:33.200Z,46.30
2024-03-05T02:54:35.017Z,48.45
2024-03-05T02:57:38.561Z,47.38
2024-03-05T03:00:40.359Z,49.00
2024-03-05T03:03:42.102Z,49.72
2024-03-05T03:06:45.163Z,53.47
2024-03-05T03:09:46.970Z,42.42
2024-03-05T03:12:49.513Z,45.53
2024-03-05T03:15:51.558Z,44.15
2024-03-05T03:18:53.354Z,45.33
2024-03-05T03:21:56.421Z,47.47
2024-03-05T03:24:58.240Z,46.22
2024-03-05T03:27:59.967Z,48.22
2024-03-05T03:31:01.754Z,48.45
2024-03-05T03:34:03.441Z,46.78
2024-03-05T03:37:06.595Z,45.85
2024-03-05T03:40:09.338Z,48.95
2024-03-05T03:43:11.171Z,46.75
2024-03-05T03:46:12.915Z,46.75
2024-03-05T03:49:14.725Z,48.60
2024-03-05T03:52:18.213Z,51.60
2024-03-05T03:55:20.062Z,49.65
2024-03-05T03:58:21.832Z,52.03
2024-03-05T04:01:23.697Z,53.35
2024-03-05T04:04:25.635Z,50.05
2024-03-05T04:07:28.784Z,50.30
2024-03-05T04:10:30.554Z,55.05
2024-03-05T04:13:32.319Z,48.67
2024-03-05T04:16:34.184Z,70.35
2024-03-05T04:19:36.009Z,55.38
2024-03-05T04:22:40.102Z,47.08
2024-03-05T04:25:42.455Z,53.20
2024-03-05T04:28:45.008Z,51.88
2024-03-05T04:31:50.968Z,50.42
2024-03-05T04:34:56.673Z,56.03
2024-03-05T04:37:59.962Z,55.78
2024-03-05T04:41:01.774Z,51.72
2024-03-05T04:44:03.591Z,55.83
2024-03-05T04:47:05.552Z,53.85
2024-03-05T04:50:08.271Z,51.30
2024-03-05T04:53:11.340Z,52.67
2024-03-05T04:56:13.065Z,49.15
2024-03-05T04:59:14.783Z,51.35
2024-03-05T05:02:16.536Z,55.42
2024-03-05T05:05:18.453Z,56.15
2024-03-05T05:08:21.624Z,55.58
2024-03-05T05:11:23.406Z,55.17
2024-03-05T05:14:25.245Z,54.58
2024-03-05T05:17:27.016Z,55.08
2024-03-05T05:20:28.768Z,55.08
2024-03-05T05:23:31.876Z,55.28
2024-03-05T05:26:33.640Z,60.78
2024-03-05T05:29:40.649Z,54.28
2024-03-05T05:32:44.368Z,58.17
2024-03-05T05:35:46.101Z,57.70
2024-03-05T05:38:49.213Z,59.92
2024-03-05T05:41:50.994Z,56.70
2024-03-05T05:44:52.861Z,57.97
2024-03-05T05:47:55.059Z,58.08
2024-03-05T05:50:57.286Z,55.97
2024-03-05T05:54:00.517Z,56.90
2024-03-05T05:57:02.302Z,56.80
2024-03-05T06:00:05.118Z,65.60
2024-03-05T06:03:07.435Z,63.55
2024-03-05T06:06:09.224Z,64.63
2024-03-05T06:09:12.385Z,65.28
2024-03-05T06:12:14.175Z,59.15
2024-03-05T06:15:16.599Z,59.53
2024-03-05T06:18:18.563Z,64.53
2024-03-05T06:21:20.316Z,60.53
2024-03-05T06:24:23.429Z,67.35
2024-03-05T06:27:25.203Z,66.75
2024-03-05T06:30:27.223Z,70.82
2024-03-05T06:33:29.136Z,83.55
2024-03-05T06:36:30.948Z,74.85
2024-03-05T06:39:34.040Z,72.32
2024-03-05T06:42:35.829Z,77.47
2024-03-05T06:45:37.596Z,76.45
2024-03-05T06:48:39.541Z,74.80
2024-03-05T06:51:41.541Z,77.30
2024-03-05T06:54:47.408Z,77.60
2024-03-05T06:57:50.850Z,73.45
2024-03-05T07:00:52.599Z,78.20
2024-03-05T07:03:54.375Z,79.55
2024-03-05T07:06:56.144Z,71.40
2024-03-05T07:09:59.257Z,79.80
2024-03-05T07:13:01.224Z,79.82
2024-03-05T07:16:04.069Z,76.32
2024-03-05T07:19:05.828Z,82.72
2024-03-05T07:22:07.551Z,74.38
2024-03-05T07:25:10.793Z,77.10
2024-03-05T07:28:12.651Z,75.75
2024-03-05T07:31:15.555Z,76.43
2024-03-05T07:34:17.425Z,76.03
2024-03-05T07:37:19.271Z,79.35
2024-03-05T07:40:22.586Z,79.72
2024-03-05T07:43:24.425Z,77.43
2024-03-05T07:46:26.165Z,76.32
2024-03-05T07:49:27.979Z,80.05
2024-03-05T07:52:29.839Z,74.47
2024-03-05T07:55:36.148Z,71.65
2024-03-05T07:58:41.521Z,78.82
2024-03-05T08:01:43.431Z,72.60
2024-03-05T08:04:45.311Z,73.07
2024-03-05T08:07:47.224Z,69.38
2024-03-05T08:10:50.563Z,65.88
2024-03-05T08:13:52.450Z,68.78
2024-03-05T08:16:54.329Z,88.47
2024-03-05T08:19:56.174Z,75.60
2024-03-05T08:22:57.949Z,100.80
2024-03-05T08:26:01.548Z,63.97
2024-03-05T08:29:03.599Z,64.32
2024-03-05T08:32:05.744Z,63.28
2024-03-05T08:35:08.441Z,61.70
2024-03-05T08:38:10.286Z,64.68
2024-03-05T08:41:13.436Z,60.83
2024-03-05T08:44:16.649Z,63.13
2024-03-05T08:47:18.374Z,64.72
2024-03-05T08:50:21.052Z,55.83
2024-03-05T08:53:22.815Z,63.08
2024-03-05T08:56:25.885Z,60.22
2024-03-05T08:59:27.819Z,53.08
2024-03-05T09:02:29.887Z,55.83
2024-03-05T09:05:31.683Z,56.38
2024-03-05T09:08:33.478Z,54.13
2024-03-05T09:11:36.713Z,55.80
2024-03-05T09:14:38.482Z,51.78
2024-03-05T09:17:40.291Z,54.13
2024-03-05T09:20:42.460Z,48.55
2024-03-05T09:23:44.286Z,50.28
2024-03-05T09:26:47.426Z,52.15
2024-03-05T09:29:49.159Z,50.88
2024-03-05T09:32:50.914Z,59.05
2024-03-05T09:35:52.723Z,45.42
2024-03-05T09:38:54.408Z,46.92
2024-03-05T09:41:57.516Z,44.88
2024-03-05T09:45:00.481Z,50.85
2024-03-05T09:48:03.058Z,52.22
2024-03-05T09:51:08.592Z,47.30
2024-03-05T09:54:10.781Z,43.38
2024-03-05T09:57:16.360Z,49.85
2024-03-05T10:00:19.506Z,47.35
2024-03-05T10:03:21.998Z,39.40
2024-03-05T10:06:23.732Z,39.20
2024-03-05T10:09:26.086Z,41.10
2024-03-05T10:12:29.365Z,41.47
2024-03-05T10:15:31.072Z,39.00
2024-03-05T10:18:32.932Z,40.95
2024-03-05T10:21:34.715Z,45.90
2024-03-05T10:24:36.496Z,37.95
2024-03-05T10:27:39.638Z,39.88
2024-03-05T10:30:41.389Z,42.10
2024-03-05T10:33:43.244Z,39.58
2024-03-05T10:36:45.043Z,27.33
2024-03-05T10:39:47.644Z,25.25
2024-03-05T10:42:53.599Z,28.98
2024-03-05T10:45:55.433Z,25.50
2024-03-05T10:48:58.383Z,21.27
2024-03-05T10:52:01.417Z,21.17
2024-03-05T10:55:06.481Z,22.40
2024-03-05T10:58:10.580Z,23.77
2024-03-05T11:01:17.869Z,27.08
2024-03-05T11:04:22.410Z,27.08
2024-03-05T11:07:24.436Z,28.40
2024-03-05T11:10:27.737Z,27.73
2024-03-05T11:13:33.367Z,25.73
2024-03-05T11:16:35.392Z,24.00
2024-03-05T11:19:38.536Z,28.77
2024-03-05T11:22:42.364Z,24.95
2024-03-05T11:25:46.899Z,26.17
2024-03-05T11:28:50.657Z,26.42
2024-03-05T11:31:54.268Z,28.83
2024-03-05T11:34:56.154Z,30.35
2024-03-05T11:38:02.664Z,29.90
2024-03-05T11:41:04.734Z,24.55
2024-03-05T11:44:08.231Z,25.30
2024-03-05T11:47:10.588Z,27.35
2024-03-05T11:50:14.028Z,26.75
2024-03-05T11:53:15.963Z,25.80
2024-03-05T11:56:19.558Z,23.60
2024-03-05T11:59:33.688Z,25.52
2024-03-05T12:02:35.568Z,25.02
2024-03-05T12:05:42.781Z,28.40
2024-03-05T12:08:44.569Z,33.72
2024-03-05T12:12:00.118Z,28.77
2024-03-05T12:15:05.748Z,32.53
2024-03-05T12:18:09.666Z,38.55
2024-03-05T12:21:11.613Z,33.17
2024-03-05T12:24:13.407Z,32.17
2024-03-05T12:27:16.261Z,32.80
2024-03-05T12:30:20.937Z,30.80
2024-03-05T12:33:26.232Z,29.70
2024-03-05T12:36:27.997Z,35.60
2024-03-05T12:39:29.835Z,33.45
2024-03-05T12:42:31.543Z,35.25
2024-03-05T12:45:36.418Z,28.02
2024-03-05T12:48:38.127Z,75.25
2024-03-05T12:51:39.909Z,33.13
2024-03-05T12:54:41.690Z,33.17
2024-03-05T12:57:45.142Z,35.78
2024-03-05T13:00:49.243Z,34.95
2024-03-05T13:03:51.039Z,30.00
2024-03-05T13:06:52.998Z,37.05
2024-03-05T13:09:55.019Z,27.63
2024-03-05T13:12:56.805Z,38.88
2024-03-05T13:15:59.989Z,33.90
2024-03-05T13:19:01.713Z,38.13
2024-03-05T13:22:03.946Z,37.58
2024-03-05T13:25:06.064Z,39.03
2024-03-05T13:28:07.953Z,32.40
2024-03-05T13:31:11.162Z,29.10
2024-03-05T13:34:13.114Z,29.00
2024-03-05T13:37:14.938Z,28.17
2024-03-05T13:40:16.855Z,24.58
2024-03-05T13:43:18.667Z,24.75
2024-03-05T13:46:21.793Z,33.00
2024-03-05T13:49:23.574Z,31.55
2024-03-05T13:52:25.351Z,33.65
2024-03-05T13:55:27.434Z,35.42
2024-03-05T13:58:29.425Z,32.67
2024-03-05T14:01:32.908Z,30.20
2024-03-05T14:04:34.803Z,30.23
2024-03-05T14:07:36.631Z,29.33
2024-03-05T14:10:38.453Z,39.20
2024-03-05T14:13:40.376Z,35.70
2024-03-05T14:16:43.604Z,26.40
2024-03-05T14:19:45.507Z,28.40
2024-03-05T14:22:47.711Z,28.70
2024-03-05T14:25:49.758Z,31.92
2024-03-05T14:28:51.642Z,27.60
2024-03-05T14:31:54.878Z,118.10
2024-03-05T14:34:56.757Z,34.17
2024-03-05T14:37:58.695Z,26.83
2024-03-05T14:41:00.627Z,27.48
2024-03-05T14:44:02.498Z,25.58
2024-03-05T14:47:06.083Z,28.85
2024-03-05T14:50:08.403Z,27.73
2024-03-05T14:53:10.225Z,25.85
2024-03-05T14:56:12.133Z,24.23
2024-03-05T14:59:14.114Z,24.90
2024-03-05T15:02:17.356Z,24.92
2024-03-05T15:05:20.297Z,25.63
2024-03-05T15:08:22.223Z,24.30
2024-03-05T15:11:24.187Z,23.23
2024-03-05T15:14:26.021Z,24.85
2024-03-05T15:17:29.273Z,22.23
2024-03-05T15:20:31.080Z,24.88
2024-03-05T15:23:32.876Z,40.38
2024-03-05T15:26:34.668Z,22.83
2024-03-05T15:29:36.431Z,22.48
2024-03-05T15:32:44.169Z,23.38
2024-03-05T15:35:46.054Z,22.65
2024-03-05T15:38:47.771Z,23.05
2024-03-05T15:41:49.584Z,26.55
2024-03-05T15:44:51.314Z,22.83
2024-03-05T15:47:54.682Z,21.88
2024-03-05T15:50:56.480Z,20.67
2024-03-05T15:53:58.225Z,20.20
2024-03-05T15:56:59.938Z,26.30
2024-03-05T16:00:01.765Z,30.15
2024-03-05T16:03:06.514Z,21.58
2024-03-05T16:06:17.877Z,20.70
2024-03-05T16:09:20.950Z,20.08
2024-03-05T16:12:22.846Z,19.10
2024-03-05T16:15:24.832Z,19.67
2024-03-05T16:18:28.062Z,17.75
2024-03-05T16:21:29.953Z,20.38
2024-03-05T16:24:31.789Z,22.92
2024-03-05T16:27:33.554Z,22.13
2024-03-05T16:30:35.318Z,20.70
2024-03-05T16:33:38.472Z,18.42
2024-03-05T16:36:40.311Z,24.02
2024-03-05T16:39:42.068Z,17.50
2024-03-05T16:42:43.893Z,23.33
2024-03-05T16:45:45.633Z,24.40
2024-03-05T16:48:48.728Z,23.75
2024-03-05T16:51:50.484Z,21.95
2024-03-05T16:54:52.204Z,25.02
2024-03-05T16:57:55.718Z,22.67
2024-03-05T17:00:57.526Z,25.63
2024-03-05T17:04:00.658Z,26.23
2024-03-05T17:07:02.431Z,24.27
2024-03-05T17:10:04.792Z,26.13
2024-03-05T17:13:06.554Z,22.33
2024-03-05T17:16:08.391Z,22.83
2024-03-05T17:19:11.493Z,25.13
2024-03-05T17:22:13.356Z,23.73
2024-03-05T17:25:15.813Z,23.10
2024-03-05T17:28:17.656Z,23.17
2024-03-05T17:31:19.467Z,24.75
2024-03-05T17:34:22.684Z,21.52
2024-03-05T17:37:24.465Z,23.80
2024-03-05T17:40:26.344Z,27.10
2024-03-05T17:43:28.179Z,22.30
2024-03-05T17:46:29.991Z,20.48
2024-03-05T17:49:33.107Z,20.70
2024-03-05T17:52:35.220Z,24.92
2024-03-05T17:55:37.211Z,23.45
2024-03-05T17:58:39.441Z,25.70
2024-03-05T18:01:41.341Z,30.08
2024-03-05T18:04:44.600Z,25.48
2024-03-05T18:07:47.240Z,21.90
2024-03-05T18:10:49.193Z,25.17
2024-03-05T18:13:51.037Z,21.67
2024-03-05T18:16:52.835Z,24.52
2024-03-05T18:19:56.146Z,22.80
2024-03-05T18:22:57.977Z,24.73
2024-03-05T18:26:00.066Z,22.33
2024-03-05T18:29:01.962Z,23.00
2024-03-05T18:32:04.168Z,23.70
2024-03-05T18:35:08.689Z,25.15
2024-03-05T18:38:20.717Z,23.05
2024-03-05T18:41:29.722Z,25.38
2024-03-05T18:44:31.582Z,24.13
2024-03-05T18:47:33.389Z,22.13
2024-03-05T18:50:36.637Z,24.67
2024-03-05T18:53:43.592Z,25.17
2024-03-05T18:56:50.927Z,27.45
2024-03-05T18:59:52.658Z,24.73
2024-03-05T19:02:54.605Z,23.58
2024-03-05T19:05:57.733Z,28.05
2024-03-05T19:08:59.465Z,27.25
2024-03-05T19:12:01.322Z,24.63
2024-03-05T19:15:03.184Z,26.83
2024-03-05T19:18:05.730Z,24.38
2024-03-05T19:21:09.362Z,25.90
2024-03-05T19:24:11.481Z,25.75
2024-03-05T19:27:13.219Z,24.60
2024-03-05T19:30:15.027Z,22.55
2024-03-05T19:33:16.785Z,25.02
2024-03-05T19:36:19.919Z,25.38
2024-03-05T19:39:21.685Z,29.35
2024-03-05T19:42:23.387Z,28.70
2024-03-05T19:45:25.691Z,28.35
2024-03-05T19:48:27.404Z,30.52
2024-03-05T19:51:30.577Z,33.65
2024-03-05T19:54:32.330Z,30.33
2024-03-05T19:57:34.324Z,27.90
2024-03-05T20:00:36.081Z,30.13
2024-03-05T20:03:38.087Z,28.65
2024-03-05T20:06:41.182Z,26.45
2024-03-05T20:09:43.933Z,29.88
2024-03-05T20:12:45.690Z,27.27
2024-03-05T20:15:47.449Z,32.67
2024-03-05T20:18:49.146Z,29.02
2024-03-05T20:21:52.332Z,31.50
2024-03-05T20:24:54.061Z,41.58
2024-03-05T20:27:55.753Z,38.38
2024-03-05T20:30:57.876Z,28.33
2024-03-05T20:33:59.598Z,28.98
2024-03-05T20:37:02.700Z,27.83
2024-03-05T20:40:04.953Z,27.40
2024-03-05T20:43:08.746Z,27.48
2024-03-05T20:46:11.913Z,25.92
2024-03-05T20:49:13.633Z,28.98
2024-03-05T20:52:16.738Z,32.95
2024-03-05T20:55:18.476Z,26.77
2024-03-05T20:58:20.237Z,30.95
2024-03-05T21:01:22.087Z,28.42
2024-03-05T21:04:23.863Z,28.45
2024-03-05T21:07:26.972Z,30.27
2024-03-05T21:10:28.801Z,28.40
2024-03-05T21:13:30.550Z,26.85
2024-03-05T21:16:32.332Z,23.33
2024-03-05T21:19:34.137Z,27.38
2024-03-05T21:22:38.391Z,27.73
2024-03-05T21:25:50.611Z,27.95
2024-03-05T21:29:01.937Z,27.42
2024-03-05T21:32:03.887Z,25.25
2024-03-05T21:35:05.966Z,26.10
2024-03-05T21:38:09.144Z,30.05
2024-03-05T21:41:10.977Z,26.77
2024-03-05T21:44:19.824Z,27.08
2024-03-05T21:47:27.352Z,28.92
2024-03-05T21:50:29.095Z,25.73
2024-03-05T21:53:32.222Z,27.05
2024-03-05T21:56:33.956Z,29.33
2024-03-05T21:59:35.752Z,29.25
2024-03-05T22:02:37.619Z,30.00
2024-03-05T22:05:39.377Z,28.52
2024-03-05T22:08:42.507Z,30.75
2024-03-05T22:11:44.357Z,26.30
2024-03-05T22:14:46.107Z,27.77
2024-03-05T22:17:47.915Z,29.98
2024-03-05T22:20:49.708Z,27.83
2024-03-05T22:23:52.820Z,33.22
2024-03-05T22:26:54.537Z,31.98
2024-03-05T22:29:56.306Z,32.65
2024-03-05T22:32:58.659Z,31.25
2024-03-05T22:36:00.855Z,30.60
2024-03-05T22:39:03.987Z,31.70
2024-03-05T22:42:07.804Z,26.20
2024-03-05T22:45:10.036Z,33.10
2024-03-05T22:48:11.804Z,27.77
2024-03-05T22:51:13.576Z,37.08
2024-03-05T22:54:16.636Z,40.72
2024-03-05T22:57:18.380Z,37.30
2024-03-05T23:00:20.479Z,42.45
2024-03-05T23:03:22.177Z,45.10
2024-03-05T23:06:25.715Z,43.17
2024-03-05T23:09:29.211Z,44.45
2024-03-05T23:12:30.938Z,32.10
2024-03-05T23:15:33.290Z,37.90
2024-03-05T23:18:35.044Z,35.42
2024-03-05T23:21:36.771Z,37.95
2024-03-05T23:24:39.892Z,40.00
2024-03-05T23:27:42.043Z,49.85
2024-03-05T23:30:43.787Z,55.83
2024-03-05T23:33:45.490Z,60.78
2024-03-05T23:36:47.202Z,61.55
2024-03-05T23:39:50.294Z,63.42
2024-03-05T23:42:52.189Z,65.70
2024-03-05T23:45:53.937Z,55.92
2024-03-05T23:48:55.611Z,52.00
2024-03-05T23:51:57.345Z,53.55
2024-03-05T23:55:02.657Z,83.72
2024-03-05T23:58:05.196Z,65.10
